sensor_id;sensor_type;location;lat;lon;timestamp;pressure;altitude;pressure_sealevel;temperature;humidity
42859;BME280;28505;56.970;40.998;2022-09-03T00:00:11;100153.59;;;9.11;100.00
42859;BME280;28505;56.970;40.998;2022-09-03T00:06:11;100128.47;;;8.87;100.00
42859;BME280;28505;56.970;40.998;2022-09-03T00:11:55;100165.72;;;9.09;100.00
42859;BME280;28505;56.970;40.998;2022-09-03T00:17:28;100111.06;;;8.74;100.00
42859;BME280;28505;56.970;40.998;2022-09-03T00:22:58;100129.53;;;8.86;100.00
42859;BME280;28505;56.970;40.998;2022-09-03T00:28:25;100166.81;;;9.08;100.00
42859;BME280;28505;56.970;40.998;2022-09-03T00:34:02;100143.22;;;8.95;100.00
42859;BME280;28505;56.970;40.998;2022-09-03T00:39:32;100134.16;;;8.80;100.00
42859;BME280;28505;56.970;40.998;2022-09-03T00:51:26;100161.56;;;8.82;100.00
42859;BME280;28505;56.970;40.998;2022-09-03T01:03:25;100214.97;;;9.04;100.00
42859;BME280;28505;56.970;40.998;2022-09-03T01:26:22;100216.84;;;9.04;100.00
42859;BME280;28505;56.970;40.998;2022-09-03T01:37:35;100230.06;;;8.95;100.00
42859;BME280;28505;56.970;40.998;2022-09-03T01:48:43;100167.06;;;8.36;100.00
42859;BME280;28505;56.970;40.998;2022-09-03T02:05:36;100261.09;;;8.67;100.00
42859;BME280;28505;56.970;40.998;2022-09-03T02:11:00;100223.25;;;8.38;100.00
42859;BME280;28505;56.970;40.998;2022-09-03T02:16:30;100217.34;;;8.20;100.00
42859;BME280;28505;56.970;40.998;2022-09-03T02:21:55;100210.63;;;8.23;100.00
42859;BME280;28505;56.970;40.998;2022-09-03T02:27:25;100268.59;;;8.60;100.00
42859;BME280;28505;56.970;40.998;2022-09-03T02:32:47;100226.19;;;8.26;100.00
42859;BME280;28505;56.970;40.998;2022-09-03T02:38:18;100257.38;;;8.48;100.00
42859;BME280;28505;56.970;40.998;2022-09-03T02:43:52;100291.19;;;8.64;100.00
42859;BME280;28505;56.970;40.998;2022-09-03T02:49:23;100301.41;;;8.67;100.00
42859;BME280;28505;56.970;40.998;2022-09-03T02:55:09;100266.50;;;8.41;100.00
42859;BME280;28505;56.970;40.998;2022-09-03T03:00:31;100317.00;;;8.70;100.00
42859;BME280;28505;56.970;40.998;2022-09-03T03:05:56;100310.00;;;8.64;100.00
42859;BME280;28505;56.970;40.998;2022-09-03T03:11:20;100320.22;;;8.67;100.00
42859;BME280;28505;56.970;40.998;2022-09-03T03:16:42;100314.28;;;8.60;100.00
42859;BME280;28505;56.970;40.998;2022-09-03T03:22:05;100316.44;;;8.63;100.00
42859;BME280;28505;56.970;40.998;2022-09-03T03:27:27;100333.34;;;8.79;100.00
42859;BME280;28505;56.970;40.998;2022-09-03T03:32:48;100335.25;;;8.78;100.00
42859;BME280;28505;56.970;40.998;2022-09-03T03:38:11;100345.44;;;8.81;100.00
42859;BME280;28505;56.970;40.998;2022-09-03T03:43:32;100330.94;;;8.72;100.00
42859;BME280;28505;56.970;40.998;2022-09-03T03:48:54;100312.16;;;8.62;100.00
42859;BME280;28505;56.970;40.998;2022-09-03T03:54:20;100348.66;;;8.88;100.00
42859;BME280;28505;56.970;40.998;2022-09-03T03:59:46;100321.53;;;8.75;100.00
42859;BME280;28505;56.970;40.998;2022-09-03T04:05:08;100361.00;;;9.10;100.00
42859;BME280;28505;56.970;40.998;2022-09-03T04:10:31;100329.81;;;9.04;100.00
42859;BME280;28505;56.970;40.998;2022-09-03T04:16:09;100385.84;;;9.51;100.00
42859;BME280;28505;56.970;40.998;2022-09-03T04:21:37;100354.41;;;9.47;100.00
42859;BME280;28505;56.970;40.998;2022-09-03T04:27:00;100329.69;;;9.40;100.00
42859;BME280;28505;56.970;40.998;2022-09-03T04:32:22;100352.94;;;9.70;100.00
42859;BME280;28505;56.970;40.998;2022-09-03T04:38:03;100344.00;;;9.74;100.00
42859;BME280;28505;56.970;40.998;2022-09-03T04:43:26;100378.44;;;9.88;100.00
42859;BME280;28505;56.970;40.998;2022-09-03T04:48:51;100423.50;;;10.16;100.00
42859;BME280;28505;56.970;40.998;2022-09-03T04:54:13;100434.19;;;10.37;100.00
42859;BME280;28505;56.970;40.998;2022-09-03T04:59:35;100440.56;;;10.51;100.00
42859;BME280;28505;56.970;40.998;2022-09-03T05:04:57;100448.31;;;10.63;100.00
42859;BME280;28505;56.970;40.998;2022-09-03T05:10:18;100459.25;;;10.76;100.00
42859;BME280;28505;56.970;40.998;2022-09-03T05:15:44;100451.09;;;10.82;100.00
42859;BME280;28505;56.970;40.998;2022-09-03T05:21:08;100447.84;;;10.85;100.00
42859;BME280;28505;56.970;40.998;2022-09-03T05:26:35;100455.19;;;11.08;100.00
42859;BME280;28505;56.970;40.998;2022-09-03T05:31:57;100466.25;;;11.36;100.00
42859;BME280;28505;56.970;40.998;2022-09-03T05:37:19;100450.81;;;11.65;97.94
42859;BME280;28505;56.970;40.998;2022-09-03T05:42:41;100446.50;;;11.64;91.74
42859;BME280;28505;56.970;40.998;2022-09-03T05:48:03;100391.78;;;11.35;90.64
42859;BME280;28505;56.970;40.998;2022-09-03T05:53:27;100438.69;;;11.63;92.28
42859;BME280;28505;56.970;40.998;2022-09-03T05:58:57;100397.50;;;11.52;88.70
42859;BME280;28505;56.970;40.998;2022-09-03T06:04:23;100424.44;;;11.81;89.69
42859;BME280;28505;56.970;40.998;2022-09-03T06:09:46;100433.25;;;12.30;86.46
42859;BME280;28505;56.970;40.998;2022-09-03T06:15:09;100439.00;;;12.61;81.96
42859;BME280;28505;56.970;40.998;2022-09-03T06:20:31;100487.72;;;12.75;79.36
42859;BME280;28505;56.970;40.998;2022-09-03T06:26:05;100472.25;;;12.61;80.72
42859;BME280;28505;56.970;40.998;2022-09-03T06:31:27;100470.06;;;12.96;79.41
42859;BME280;28505;56.970;40.998;2022-09-03T06:36:49;100507.53;;;12.89;77.61
42859;BME280;28505;56.970;40.998;2022-09-03T06:42:14;100490.66;;;12.78;78.18
42859;BME280;28505;56.970;40.998;2022-09-03T06:47:36;100483.78;;;13.19;73.86
42859;BME280;28505;56.970;40.998;2022-09-03T06:52:58;100475.63;;;13.51;70.51
42859;BME280;28505;56.970;40.998;2022-09-03T06:58:20;100494.66;;;13.32;71.77
42859;BME280;28505;56.970;40.998;2022-09-03T07:03:46;100481.13;;;13.46;72.61
42859;BME280;28505;56.970;40.998;2022-09-03T07:09:09;100490.09;;;13.74;71.40
42859;BME280;28505;56.970;40.998;2022-09-03T07:14:32;100488.75;;;14.13;70.50
42859;BME280;28505;56.970;40.998;2022-09-03T07:19:54;100491.88;;;14.07;68.11
42859;BME280;28505;56.970;40.998;2022-09-03T07:25:16;100502.13;;;13.82;66.55
42859;BME280;28505;56.970;40.998;2022-09-03T07:30:39;100515.75;;;13.63;66.82
42859;BME280;28505;56.970;40.998;2022-09-03T07:36:24;100496.41;;;13.84;65.55
42859;BME280;28505;56.970;40.998;2022-09-03T07:41:47;100507.59;;;14.18;63.58
42859;BME280;28505;56.970;40.998;2022-09-03T07:47:10;100445.13;;;13.59;62.65
42859;BME280;28505;56.970;40.998;2022-09-03T07:58:47;100493.84;;;13.32;61.45
42859;BME280;28505;56.970;40.998;2022-09-03T08:04:09;100508.13;;;13.19;60.89
42859;BME280;28505;56.970;40.998;2022-09-03T08:09:32;100485.38;;;13.20;60.82
42859;BME280;28505;56.970;40.998;2022-09-03T08:14:54;100531.53;;;13.61;61.07
42859;BME280;28505;56.970;40.998;2022-09-03T08:20:20;100516.97;;;13.57;60.71
42859;BME280;28505;56.970;40.998;2022-09-03T08:25:41;100518.56;;;13.72;60.41
42859;BME280;28505;56.970;40.998;2022-09-03T08:31:10;100536.63;;;13.76;60.30
42859;BME280;28505;56.970;40.998;2022-09-03T08:36:35;100518.50;;;13.77;58.25
42859;BME280;28505;56.970;40.998;2022-09-03T08:42:12;100547.31;;;13.87;58.60
42859;BME280;28505;56.970;40.998;2022-09-03T08:47:49;100534.84;;;13.99;59.16
42859;BME280;28505;56.970;40.998;2022-09-03T08:53:36;100531.19;;;14.45;59.28
42859;BME280;28505;56.970;40.998;2022-09-03T08:59:01;100535.97;;;14.98;58.32
42859;BME280;28505;56.970;40.998;2022-09-03T09:04:29;100534.91;;;15.31;57.09
42859;BME280;28505;56.970;40.998;2022-09-03T09:10:21;100531.94;;;15.50;56.00
42859;BME280;28505;56.970;40.998;2022-09-03T09:15:55;100539.28;;;15.18;56.15
42859;BME280;28505;56.970;40.998;2022-09-03T09:21:27;100534.59;;;14.87;56.30
42859;BME280;28505;56.970;40.998;2022-09-03T09:27:09;100525.28;;;14.80;55.60
42859;BME280;28505;56.970;40.998;2022-09-03T09:32:36;100527.81;;;14.76;56.30
42859;BME280;28505;56.970;40.998;2022-09-03T09:37:58;100524.94;;;14.59;55.02
42859;BME280;28505;56.970;40.998;2022-09-03T09:43:21;100545.28;;;15.06;54.20
42859;BME280;28505;56.970;40.998;2022-09-03T09:48:56;100483.41;;;14.94;52.63
42859;BME280;28505;56.970;40.998;2022-09-03T09:54:24;100512.59;;;15.20;53.08
42859;BME280;28505;56.970;40.998;2022-09-03T10:00:00;100509.22;;;15.45;51.46
42859;BME280;28505;56.970;40.998;2022-09-03T10:05:31;100523.66;;;15.23;52.27
42859;BME280;28505;56.970;40.998;2022-09-03T10:10:54;100494.69;;;14.88;52.39
42859;BME280;28505;56.970;40.998;2022-09-03T10:16:32;100545.59;;;15.05;53.63
42859;BME280;28505;56.970;40.998;2022-09-03T10:27:23;100495.16;;;14.67;54.39
42859;BME280;28505;56.970;40.998;2022-09-03T10:33:09;100483.94;;;14.46;54.93
42859;BME280;28505;56.970;40.998;2022-09-03T10:38:34;100483.69;;;14.70;54.68
42859;BME280;28505;56.970;40.998;2022-09-03T10:44:14;100482.13;;;15.01;53.89
42859;BME280;28505;56.970;40.998;2022-09-03T10:55:20;100507.25;;;15.60;52.85
42859;BME280;28505;56.970;40.998;2022-09-03T11:00:51;100540.06;;;16.03;52.97
42859;BME280;28505;56.970;40.998;2022-09-03T11:06:21;100537.44;;;15.89;51.96
42859;BME280;28505;56.970;40.998;2022-09-03T11:11:50;100544.53;;;15.68;52.06
42859;BME280;28505;56.970;40.998;2022-09-03T11:17:24;100545.94;;;15.34;52.96
42859;BME280;28505;56.970;40.998;2022-09-03T11:22:50;100523.00;;;14.95;53.60
42859;BME280;28505;56.970;40.998;2022-09-03T11:34:26;100541.13;;;14.86;54.27
42859;BME280;28505;56.970;40.998;2022-09-03T11:40:05;100548.41;;;14.77;54.69
42859;BME280;28505;56.970;40.998;2022-09-03T11:45:33;100553.63;;;14.73;54.73
42859;BME280;28505;56.970;40.998;2022-09-03T11:50:56;100527.97;;;14.43;55.03
42859;BME280;28505;56.970;40.998;2022-09-03T11:56:19;100480.22;;;14.06;55.83
42859;BME280;28505;56.970;40.998;2022-09-03T12:02:03;100510.47;;;14.49;55.92
42859;BME280;28505;56.970;40.998;2022-09-03T12:24:54;100501.59;;;14.71;54.29
42859;BME280;28505;56.970;40.998;2022-09-03T12:30:21;100497.34;;;14.79;54.78
42859;BME280;28505;56.970;40.998;2022-09-03T12:35:58;100474.75;;;14.70;54.60
42859;BME280;28505;56.970;40.998;2022-09-03T12:41:28;100519.06;;;15.02;54.64
42859;BME280;28505;56.970;40.998;2022-09-03T12:47:03;100472.97;;;14.88;54.46
42859;BME280;28505;56.970;40.998;2022-09-03T12:52:56;100522.44;;;15.07;53.46
42859;BME280;28505;56.970;40.998;2022-09-03T12:58:26;100509.75;;;14.58;54.32
42859;BME280;28505;56.970;40.998;2022-09-03T13:03:58;100534.19;;;14.44;55.04
42859;BME280;28505;56.970;40.998;2022-09-03T13:09:28;100469.78;;;13.99;55.99
42859;BME280;28505;56.970;40.998;2022-09-03T13:14:54;100528.09;;;14.74;55.88
42859;BME280;28505;56.970;40.998;2022-09-03T13:32:26;100459.59;;;14.69;55.99
42859;BME280;28505;56.970;40.998;2022-09-03T13:38:11;100512.69;;;15.06;56.19
42859;BME280;28505;56.970;40.998;2022-09-03T13:43:57;100507.88;;;15.03;56.17
42859;BME280;28505;56.970;40.998;2022-09-03T13:50:00;100499.53;;;14.99;55.66
42859;BME280;28505;56.970;40.998;2022-09-03T13:55:47;100503.50;;;14.93;55.73
42859;BME280;28505;56.970;40.998;2022-09-03T14:01:26;100500.84;;;14.80;55.85
42859;BME280;28505;56.970;40.998;2022-09-03T14:07:02;100516.69;;;14.50;56.21
42859;BME280;28505;56.970;40.998;2022-09-03T14:12:36;100511.03;;;14.24;56.92
42859;BME280;28505;56.970;40.998;2022-09-03T14:29:35;100505.28;;;14.39;58.04
42859;BME280;28505;56.970;40.998;2022-09-03T14:35:28;100499.38;;;14.23;57.64
42859;BME280;28505;56.970;40.998;2022-09-03T14:53:05;100463.41;;;13.68;58.31
42859;BME280;28505;56.970;40.998;2022-09-03T14:59:07;100433.50;;;13.45;57.87
42859;BME280;28505;56.970;40.998;2022-09-03T15:04:49;100484.06;;;13.64;58.38
42859;BME280;28505;56.970;40.998;2022-09-03T15:10:38;100487.25;;;13.66;58.27
42859;BME280;28505;56.970;40.998;2022-09-03T15:16:19;100432.53;;;13.22;58.62
42859;BME280;28505;56.970;40.998;2022-09-03T15:33:58;100479.22;;;13.14;59.42
42859;BME280;28505;56.970;40.998;2022-09-03T15:39:35;100448.09;;;12.84;59.80
42859;BME280;28505;56.970;40.998;2022-09-03T15:45:17;100431.09;;;12.64;60.43
42859;BME280;28505;56.970;40.998;2022-09-03T15:56:28;100441.81;;;12.37;61.04
42859;BME280;28505;56.970;40.998;2022-09-03T16:02:03;100463.06;;;12.25;62.15
42859;BME280;28505;56.970;40.998;2022-09-03T16:19:40;100414.09;;;11.16;64.33
42859;BME280;28505;56.970;40.998;2022-09-03T16:25:19;100471.13;;;11.34;64.55
42859;BME280;28505;56.970;40.998;2022-09-03T16:37:08;100442.47;;;10.45;66.02
42859;BME280;28505;56.970;40.998;2022-09-03T16:42:43;100480.94;;;10.56;66.70
42859;BME280;28505;56.970;40.998;2022-09-03T17:18:04;100491.13;;;9.40;70.28
42859;BME280;28505;56.970;40.998;2022-09-03T17:46:25;100508.38;;;8.98;72.72
42859;BME280;28505;56.970;40.998;2022-09-03T17:57:52;100500.00;;;8.68;73.79
42859;BME280;28505;56.970;40.998;2022-09-03T18:03:25;100507.78;;;8.60;74.75
42859;BME280;28505;56.970;40.998;2022-09-03T18:09:04;100494.06;;;8.56;75.11
42859;BME280;28505;56.970;40.998;2022-09-03T18:14:34;100502.41;;;8.50;75.44
42859;BME280;28505;56.970;40.998;2022-09-03T18:20:05;100499.69;;;8.39;76.45
42859;BME280;28505;56.970;40.998;2022-09-03T18:25:53;100504.75;;;8.36;77.04
42859;BME280;28505;56.970;40.998;2022-09-03T18:31:35;100481.09;;;8.17;77.58
42859;BME280;28505;56.970;40.998;2022-09-03T18:37:23;100502.84;;;8.21;77.29
42859;BME280;28505;56.970;40.998;2022-09-03T18:43:19;100511.16;;;8.19;78.26
42859;BME280;28505;56.970;40.998;2022-09-03T18:49:38;100506.06;;;8.23;78.44
42859;BME280;28505;56.970;40.998;2022-09-03T18:55:45;100504.94;;;8.09;78.52
42859;BME280;28505;56.970;40.998;2022-09-03T19:01:40;100426.88;;;7.53;79.60
42859;BME280;28505;56.970;40.998;2022-09-03T19:07:45;100433.28;;;7.46;79.61
42859;BME280;28505;56.970;40.998;2022-09-03T19:13:38;100486.06;;;7.83;80.04
42859;BME280;28505;56.970;40.998;2022-09-03T19:25:38;100454.59;;;7.21;80.49
42859;BME280;28505;56.970;40.998;2022-09-03T19:37:20;100447.66;;;6.88;81.32
42859;BME280;28505;56.970;40.998;2022-09-03T19:55:25;100427.38;;;6.65;82.75
42859;BME280;28505;56.970;40.998;2022-09-03T20:01:08;100479.81;;;6.88;82.54
42859;BME280;28505;56.970;40.998;2022-09-03T20:06:51;100420.03;;;6.23;83.57
42859;BME280;28505;56.970;40.998;2022-09-03T20:12:35;100417.69;;;6.04;83.69
42859;BME280;28505;56.970;40.998;2022-09-03T20:29:25;100470.91;;;6.23;84.74
42859;BME280;28505;56.970;40.998;2022-09-03T20:40:40;100429.25;;;5.88;85.20
42859;BME280;28505;56.970;40.998;2022-09-03T20:51:56;100452.69;;;5.98;86.12
42859;BME280;28505;56.970;40.998;2022-09-03T20:57:48;100463.88;;;5.95;86.36
42859;BME280;28505;56.970;40.998;2022-09-03T21:03:44;100465.84;;;5.99;87.17
42859;BME280;28505;56.970;40.998;2022-09-03T21:09:36;100468.72;;;6.20;86.88
42859;BME280;28505;56.970;40.998;2022-09-03T21:21:01;100470.56;;;6.41;86.49
42859;BME280;28505;56.970;40.998;2022-09-03T21:26:28;100441.31;;;6.35;87.11
42859;BME280;28505;56.970;40.998;2022-09-03T21:32:09;100471.41;;;6.74;87.71
42859;BME280;28505;56.970;40.998;2022-09-03T21:37:38;100466.72;;;6.91;87.11
42859;BME280;28505;56.970;40.998;2022-09-03T21:43:20;100467.06;;;7.00;86.83
42859;BME280;28505;56.970;40.998;2022-09-03T21:49:11;100419.50;;;6.85;86.90
42859;BME280;28505;56.970;40.998;2022-09-03T21:54:35;100441.00;;;6.95;86.47
42859;BME280;28505;56.970;40.998;2022-09-03T22:05:42;100450.06;;;6.89;86.84
42859;BME280;28505;56.970;40.998;2022-09-03T22:17:10;100450.63;;;6.91;87.43
42859;BME280;28505;56.970;40.998;2022-09-03T22:39:48;100437.06;;;6.39;88.80
42859;BME280;28505;56.970;40.998;2022-09-03T22:45:19;100456.00;;;6.32;89.84
42859;BME280;28505;56.970;40.998;2022-09-03T22:56:18;100464.47;;;5.97;90.76
42859;BME280;28505;56.970;40.998;2022-09-03T23:13:18;100461.69;;;5.70;91.14
42859;BME280;28505;56.970;40.998;2022-09-03T23:18:43;100460.41;;;5.72;91.48
42859;BME280;28505;56.970;40.998;2022-09-03T23:24:13;100471.34;;;5.71;91.35
42859;BME280;28505;56.970;40.998;2022-09-03T23:29:43;100483.69;;;5.55;89.86
42859;BME280;28505;56.970;40.998;2022-09-03T23:35:10;100485.28;;;5.34;90.40
42859;BME280;28505;56.970;40.998;2022-09-03T23:52:17;100468.94;;;4.63;92.88
42859;BME280;28505;56.970;40.998;2022-09-03T23:57:54;100437.88;;;4.28;94.08
